Reecon Whale — 9HA2885 — position and weather

sailwx.info

Track history (hours):
 
Tides and Currents Weather Stations Pressure Air Temp Water Temp Dewpoint Dewpoint Depression Visibility Wind Speed Wind Dir Waves Ship Positions

Reecon Whale

Last reported at 2015-Apr-18 17:24 UTC. Time now 2015-Apr-19 19:13 UTC.
Position N 37°20' E 006°50'.

Length 145 m; draft 8.8 m.

Type: Ship. MMSI: 256579000.

Date/timePositionNaut miles runAvg speedWind from/ knotsBaromVisibWave heightAir tempDewpointWater temp
2015-Apr-18 17:24N 37°20' E 006°50'1011.1
2015-Apr-18 16:32N 37°20' E 007°02'2511.7
2015-Apr-18 14:26N 37°20' E 007°33'1011.0
2015-Apr-18 13:32N 37°20' E 007°46'1111.5
2015-Apr-18 12:33N 37°20' E 008°00'1211.9
2015-Apr-18 11:31N 37°20' E 008°16'1112.0
2015-Apr-18 10:34N 37°20' E 008°30'1211.7
2015-Apr-18 09:33N 37°21' E 008°45'1211.9
2015-Apr-18 08:33N 37°25' E 008°59'1212.1
2015-Apr-18 07:33N 37°28' E 009°14'2411.6
2015-Apr-18 05:26N 37°35' E 009°43'1010.9
2015-Apr-18 04:33N 37°38' E 009°55'1110.6
2015-Apr-18 03:33N 37°39' E 010°08'1110.6
2015-Apr-18 02:33N 37°38' E 010°22'1010.6
2015-Apr-18 01:34N 37°35' E 010°34'1110.6
2015-Apr-18 00:33N 37°32' E 010°47'1611.0
2015-Apr-17 23:05N 37°28' E 011°07'510.5
2015-Apr-17 22:34N 37°26' E 011°13'1410.8
2015-Apr-17 21:16N 37°20' E 011°29'811.0
2015-Apr-17 20:33N 37°17' E 011°38'1111.2
2015-Apr-17 19:33N 37°12' E 011°51'1111.1
2015-Apr-17 18:34N 37°08' E 012°04'1111.4
2015-Apr-17 17:33N 37°04' E 012°17'1111.1
2015-Apr-17 16:33N 36°59' E 012°30'1111.2
2015-Apr-17 15:34N 36°55' E 012°43'1111.5
2015-Apr-17 14:34N 36°51' E 012°56'1111.4
2015-Apr-17 13:33N 36°46' E 013°09'1111.2
2015-Apr-17 12:34N 36°42' E 013°22'1111.0
2015-Apr-17 11:34N 36°37' E 013°35'1111.4
2015-Apr-17 10:34N 36°33' E 013°48'1211.6
2015-Apr-17 09:33N 36°28' E 014°01'1111.6
2015-Apr-17 08:34N 36°24' E 014°14'1111.4
2015-Apr-17 07:34N 36°21' E 014°28'1411.9
2015-Apr-17 06:24N 36°20' E 014°45'2211.8
2015-Apr-17 04:31N 36°20' E 015°13'1111.6
2015-Apr-17 03:33N 36°20' E 015°26'6311.8
2015-Apr-16 22:15N 36°20' E 016°44'2411.5
2015-Apr-16 20:11N 36°20' E 017°13'711.4
2015-Apr-16 19:34N 36°20' E 017°22'1111.3
2015-Apr-16 18:34N 36°20' E 017°36'1211.3
2015-Apr-16 17:32N 36°20' E 017°51'288 9.9
2015-Apr-15 12:19N 37°30' E 023°41'911.7
2015-Apr-15 11:33N 37°39' E 023°43'1111.3
2015-Apr-15 10:34N 37°49' E 023°37'7 6.8
2015-Apr-15 09:33N 37°55' E 023°34'0 0.0
2015-Apr-15 08:33N 37°55' E 023°34'0 0.0
2015-Apr-15 07:33N 37°55' E 023°34'0 0.0
2015-Apr-15 06:33N 37°55' E 023°34'0 0.0
2015-Apr-15 05:33N 37°55' E 023°34'0 0.1
2015-Apr-15 04:33N 37°55' E 023°34'3 2.7
2015-Apr-15 03:33N 37°57' E 023°36'0 0.0
2015-Apr-15 02:32N 37°57' E 023°36'0 0.0
2015-Apr-15 01:23N 37°57' E 023°36'0 0.0
2015-Apr-15 00:32N 37°57' E 023°36'0 0.0
2015-Apr-14 23:32N 37°57' E 023°36'0 0.0
2015-Apr-14 22:29N 37°57' E 023°36'0 0.0
2015-Apr-14 21:32N 37°57' E 023°36'0 0.0
2015-Apr-14 20:29N 37°57' E 023°36'0 0.0
2015-Apr-14 19:26N 37°57' E 023°36'0 0.0
2015-Apr-14 18:29N 37°57' E 023°36'0 0.0
2015-Apr-14 17:32N 37°57' E 023°36'0 0.0
2015-Apr-14 16:32N 37°57' E 023°36'0 0.0
2015-Apr-14 15:29N 37°57' E 023°36'0 0.0
2015-Apr-14 14:29N 37°57' E 023°36'0 0.0
2015-Apr-14 13:32N 37°57' E 023°36'0 0.0
2015-Apr-14 12:32N 37°57' E 023°36'0 0.0
2015-Apr-14 11:32N 37°57' E 023°36'0 0.0
2015-Apr-14 10:32N 37°57' E 023°36'0 0.0
2015-Apr-14 09:32N 37°57' E 023°36'0 0.0
2015-Apr-14 08:32N 37°57' E 023°36'0 0.0
2015-Apr-14 07:29N 37°57' E 023°36'0 0.0
2015-Apr-14 06:32N 37°57' E 023°36'0 0.0
2015-Apr-14 05:32N 37°57' E 023°36'0 0.0
2015-Apr-14 04:32N 37°57' E 023°36'0 0.0
2015-Apr-14 03:32N 37°57' E 023°36'0 0.0
2015-Apr-14 02:29N 37°57' E 023°36'0 0.0
2015-Apr-14 01:29N 37°57' E 023°36'0 0.0
2015-Apr-14 00:32N 37°57' E 023°36'0 0.0
2015-Apr-13 23:32N 37°57' E 023°36'0 0.0
2015-Apr-13 22:32N 37°57' E 023°36'0 0.0
2015-Apr-13 21:32N 37°57' E 023°36'0 0.0
2015-Apr-13 20:32N 37°57' E 023°36'2 1.7
2015-Apr-13 19:33N 37°56' E 023°36'1 1.3
2015-Apr-13 18:34N 37°55' E 023°36'0 0.2
2015-Apr-13 17:33N 37°55' E 023°36'3 2.6
2015-Apr-13 16:34N 37°53' E 023°38'1010.2
2015-Apr-13 15:33N 37°43' E 023°44'10 9.8
2015-Apr-13 14:34N 37°34' E 023°44'10 9.9
2015-Apr-13 13:33N 37°24' E 023°41'1010.3
2015-Apr-13 12:34N 37°14' E 023°39'1010.2
2015-Apr-13 11:33N 37°04' E 023°36'1010.5
2015-Apr-13 10:33N 36°54' E 023°33'1110.7
2015-Apr-13 09:34N 36°44' E 023°28'1110.5
2015-Apr-13 08:30N 36°34' E 023°22'1310.4
2015-Apr-13 07:17N 36°23' E 023°15'38610.4
2015-Apr-11 18:20N 36°20' E 015°16'20310.8
2015-Apr-10 23:28N 37°21' E 011°13'3410.5
2015-Apr-10 20:15N 37°30' E 010°33'34110.4
2015-Apr-09 11:24N 36°57' E 003°27'910.1
2015-Apr-09 10:32N 36°53' E 003°17'1010.2
2015-Apr-09 09:34N 36°48' E 003°06'3 2.9
2015-Apr-09 08:33N 36°46' E 003°04'0 0.0
2015-Apr-09 07:33N 36°46' E 003°04'0 0.0
2015-Apr-09 06:10N 36°46' E 003°04'0 0.0
2015-Apr-09 05:28N 36°46' E 003°04'0 0.0
2015-Apr-09 03:28N 36°46' E 003°04'0 0.0
2015-Apr-09 02:28N 36°46' E 003°04'0 0.0
2015-Apr-09 01:31N 36°46' E 003°04'0 0.0
2015-Apr-09 00:31N 36°46' E 003°04'0 0.0
2015-Apr-08 23:31N 36°46' E 003°04'0 0.0
2015-Apr-08 22:28N 36°46' E 003°04'0 0.0
2015-Apr-08 21:31N 36°46' E 003°04'0 0.0
2015-Apr-08 20:28N 36°46' E 003°04'0 0.0
2015-Apr-08 19:28N 36°46' E 003°04'0 0.0
2015-Apr-08 18:28N 36°46' E 003°04'  
Track history (hours):
 
Tides and Currents Weather Stations Pressure Air Temp Water Temp Dewpoint Dewpoint Depression Visibility Wind Speed Wind Dir Waves Ship Positions

Reecon Whale

Last reported at 2015-Apr-18 17:24 UTC. Time now 2015-Apr-19 19:13 UTC.
Position N 37°20' E 006°50'.

Length 145 m; draft 8.8 m.

Type: Ship. MMSI: 256579000.

Date/timePositionNaut miles runAvg speedWind from/ knotsBaromVisibWave heightAir tempDewpointWater temp
2015-Apr-18 17:24N 37°20' E 006°50'1011.1
2015-Apr-18 16:32N 37°20' E 007°02'2511.7
2015-Apr-18 14:26N 37°20' E 007°33'1011.0
2015-Apr-18 13:32N 37°20' E 007°46'1111.5
2015-Apr-18 12:33N 37°20' E 008°00'1211.9
2015-Apr-18 11:31N 37°20' E 008°16'1112.0
2015-Apr-18 10:34N 37°20' E 008°30'1211.7
2015-Apr-18 09:33N 37°21' E 008°45'1211.9
2015-Apr-18 08:33N 37°25' E 008°59'1212.1
2015-Apr-18 07:33N 37°28' E 009°14'2411.6
2015-Apr-18 05:26N 37°35' E 009°43'1010.9
2015-Apr-18 04:33N 37°38' E 009°55'1110.6
2015-Apr-18 03:33N 37°39' E 010°08'1110.6
2015-Apr-18 02:33N 37°38' E 010°22'1010.6
2015-Apr-18 01:34N 37°35' E 010°34'1110.6
2015-Apr-18 00:33N 37°32' E 010°47'1611.0
2015-Apr-17 23:05N 37°28' E 011°07'510.5
2015-Apr-17 22:34N 37°26' E 011°13'1410.8
2015-Apr-17 21:16N 37°20' E 011°29'811.0
2015-Apr-17 20:33N 37°17' E 011°38'1111.2
2015-Apr-17 19:33N 37°12' E 011°51'1111.1
2015-Apr-17 18:34N 37°08' E 012°04'1111.4
2015-Apr-17 17:33N 37°04' E 012°17'1111.1
2015-Apr-17 16:33N 36°59' E 012°30'1111.2
2015-Apr-17 15:34N 36°55' E 012°43'1111.5
2015-Apr-17 14:34N 36°51' E 012°56'1111.4
2015-Apr-17 13:33N 36°46' E 013°09'1111.2
2015-Apr-17 12:34N 36°42' E 013°22'1111.0
2015-Apr-17 11:34N 36°37' E 013°35'1111.4
2015-Apr-17 10:34N 36°33' E 013°48'1211.6
2015-Apr-17 09:33N 36°28' E 014°01'1111.6
2015-Apr-17 08:34N 36°24' E 014°14'1111.4
2015-Apr-17 07:34N 36°21' E 014°28'1411.9
2015-Apr-17 06:24N 36°20' E 014°45'2211.8
2015-Apr-17 04:31N 36°20' E 015°13'1111.6
2015-Apr-17 03:33N 36°20' E 015°26'6311.8
2015-Apr-16 22:15N 36°20' E 016°44'2411.5
2015-Apr-16 20:11N 36°20' E 017°13'711.4
2015-Apr-16 19:34N 36°20' E 017°22'1111.3
2015-Apr-16 18:34N 36°20' E 017°36'1211.3
2015-Apr-16 17:32N 36°20' E 017°51'288 9.9
2015-Apr-15 12:19N 37°30' E 023°41'911.7
2015-Apr-15 11:33N 37°39' E 023°43'1111.3
2015-Apr-15 10:34N 37°49' E 023°37'7 6.8
2015-Apr-15 09:33N 37°55' E 023°34'0 0.0
2015-Apr-15 08:33N 37°55' E 023°34'0 0.0
2015-Apr-15 07:33N 37°55' E 023°34'0 0.0
2015-Apr-15 06:33N 37°55' E 023°34'0 0.0
2015-Apr-15 05:33N 37°55' E 023°34'0 0.1
2015-Apr-15 04:33N 37°55' E 023°34'3 2.7
2015-Apr-15 03:33N 37°57' E 023°36'0 0.0
2015-Apr-15 02:32N 37°57' E 023°36'0 0.0
2015-Apr-15 01:23N 37°57' E 023°36'0 0.0
2015-Apr-15 00:32N 37°57' E 023°36'0 0.0
2015-Apr-14 23:32N 37°57' E 023°36'0 0.0
2015-Apr-14 22:29N 37°57' E 023°36'0 0.0
2015-Apr-14 21:32N 37°57' E 023°36'0 0.0
2015-Apr-14 20:29N 37°57' E 023°36'0 0.0
2015-Apr-14 19:26N 37°57' E 023°36'0 0.0
2015-Apr-14 18:29N 37°57' E 023°36'0 0.0
2015-Apr-14 17:32N 37°57' E 023°36'0 0.0
2015-Apr-14 16:32N 37°57' E 023°36'0 0.0
2015-Apr-14 15:29N 37°57' E 023°36'0 0.0
2015-Apr-14 14:29N 37°57' E 023°36'0 0.0
2015-Apr-14 13:32N 37°57' E 023°36'0 0.0
2015-Apr-14 12:32N 37°57' E 023°36'0 0.0
2015-Apr-14 11:32N 37°57' E 023°36'0 0.0
2015-Apr-14 10:32N 37°57' E 023°36'0 0.0
2015-Apr-14 09:32N 37°57' E 023°36'0 0.0
2015-Apr-14 08:32N 37°57' E 023°36'0 0.0
2015-Apr-14 07:29N 37°57' E 023°36'0 0.0
2015-Apr-14 06:32N 37°57' E 023°36'0 0.0
2015-Apr-14 05:32N 37°57' E 023°36'0 0.0
2015-Apr-14 04:32N 37°57' E 023°36'0 0.0
2015-Apr-14 03:32N 37°57' E 023°36'0 0.0
2015-Apr-14 02:29N 37°57' E 023°36'0 0.0
2015-Apr-14 01:29N 37°57' E 023°36'0 0.0
2015-Apr-14 00:32N 37°57' E 023°36'0 0.0
2015-Apr-13 23:32N 37°57' E 023°36'0 0.0
2015-Apr-13 22:32N 37°57' E 023°36'0 0.0
2015-Apr-13 21:32N 37°57' E 023°36'0 0.0
2015-Apr-13 20:32N 37°57' E 023°36'2 1.7
2015-Apr-13 19:33N 37°56' E 023°36'1 1.3
2015-Apr-13 18:34N 37°55' E 023°36'0 0.2
2015-Apr-13 17:33N 37°55' E 023°36'3 2.6
2015-Apr-13 16:34N 37°53' E 023°38'1010.2
2015-Apr-13 15:33N 37°43' E 023°44'10 9.8
2015-Apr-13 14:34N 37°34' E 023°44'10 9.9
2015-Apr-13 13:33N 37°24' E 023°41'1010.3
2015-Apr-13 12:34N 37°14' E 023°39'1010.2
2015-Apr-13 11:33N 37°04' E 023°36'1010.5
2015-Apr-13 10:33N 36°54' E 023°33'1110.7
2015-Apr-13 09:34N 36°44' E 023°28'1110.5
2015-Apr-13 08:30N 36°34' E 023°22'1310.4
2015-Apr-13 07:17N 36°23' E 023°15'38610.4
2015-Apr-11 18:20N 36°20' E 015°16'20310.8
2015-Apr-10 23:28N 37°21' E 011°13'3410.5
2015-Apr-10 20:15N 37°30' E 010°33'34110.4
2015-Apr-09 11:24N 36°57' E 003°27'910.1
2015-Apr-09 10:32N 36°53' E 003°17'1010.2
2015-Apr-09 09:34N 36°48' E 003°06'3 2.9
2015-Apr-09 08:33N 36°46' E 003°04'0 0.0
2015-Apr-09 07:33N 36°46' E 003°04'0 0.0
2015-Apr-09 06:10N 36°46' E 003°04'0 0.0
2015-Apr-09 05:28N 36°46' E 003°04'0 0.0
2015-Apr-09 03:28N 36°46' E 003°04'0 0.0
2015-Apr-09 02:28N 36°46' E 003°04'0 0.0
2015-Apr-09 01:31N 36°46' E 003°04'0 0.0
2015-Apr-09 00:31N 36°46' E 003°04'0 0.0
2015-Apr-08 23:31N 36°46' E 003°04'0 0.0
2015-Apr-08 22:28N 36°46' E 003°04'0 0.0
2015-Apr-08 21:31N 36°46' E 003°04'0 0.0
2015-Apr-08 20:28N 36°46' E 003°04'0 0.0
2015-Apr-08 19:28N 36°46' E 003°04'0 0.0
2015-Apr-08 18:28N 36°46' E 003°04'  

Dump ship's entire track history